createdAt,value
2022-12-28T00:00:24.860Z,6.60
2022-12-28T00:03:27.952Z,6.50
2022-12-28T00:06:29.725Z,6.30
2022-12-28T00:09:31.269Z,6.60
2022-12-28T00:12:32.941Z,6.70
2022-12-28T00:15:36.549Z,6.50
2022-12-28T00:18:38.246Z,6.60
2022-12-28T00:21:40.187Z,6.80
2022-12-28T00:24:41.814Z,6.60
2022-12-28T00:27:43.352Z,5.50
2022-12-28T00:30:44.883Z,6.70
2022-12-28T00:33:47.319Z,6.70
2022-12-28T00:37:08.659Z,6.70
2022-12-28T00:40:18.930Z,7.00
2022-12-28T00:43:23.984Z,6.70
2022-12-28T00:46:25.525Z,6.80
2022-12-28T00:49:27.063Z,6.50
2022-12-28T00:52:28.620Z,6.70
2022-12-28T00:55:30.237Z,6.50
2022-12-28T00:58:32.239Z,6.70
2022-12-28T01:01:33.932Z,6.50
2022-12-28T01:04:35.560Z,6.40
2022-12-28T01:07:37.113Z,6.40
2022-12-28T01:10:39.557Z,6.70
2022-12-28T01:13:41.127Z,6.50
2022-12-28T01:16:42.793Z,6.60
2022-12-28T01:19:50.268Z,6.70
2022-12-28T01:22:55.945Z,6.50
2022-12-28T01:26:01.999Z,6.40
2022-12-28T01:29:03.605Z,6.50
2022-12-28T01:32:05.410Z,6.40
2022-12-28T01:35:07.400Z,6.50
2022-12-28T01:38:08.981Z,6.50
2022-12-28T01:41:16.162Z,6.50
2022-12-28T01:44:17.659Z,6.40
2022-12-28T01:47:28.952Z,6.30
2022-12-28T01:50:30.663Z,6.70
2022-12-28T01:53:32.455Z,6.50
2022-12-28T01:56:34.019Z,6.70
2022-12-28T01:59:41.043Z,6.60
2022-12-28T02:02:47.896Z,6.70
2022-12-28T02:05:52.443Z,6.70
2022-12-28T02:09:14.261Z,6.70
2022-12-28T02:12:16.990Z,6.70
2022-12-28T02:15:23.069Z,6.80
2022-12-28T02:18:25.821Z,7.10
2022-12-28T02:22:05.302Z,6.80
2022-12-28T02:25:48.467Z,6.90
2022-12-28T02:29:16.716Z,7.00
2022-12-28T02:32:39.919Z,7.10
2022-12-28T02:36:18.115Z,7.00
2022-12-28T02:39:25.547Z,7.10
2022-12-28T02:42:28.690Z,7.10
2022-12-28T02:45:55.193Z,7.00
2022-12-28T02:49:15.712Z,7.10
2022-12-28T02:52:41.670Z,7.10
2022-12-28T02:56:07.799Z,7.50
2022-12-28T02:59:15.521Z,7.10
2022-12-28T03:02:19.989Z,7.20
2022-12-28T03:06:16.001Z,7.30
2022-12-28T03:09:39.305Z,7.20
2022-12-28T03:13:32.955Z,6.90
2022-12-28T03:17:00.038Z,7.40
2022-12-28T03:20:26.229Z,7.30
2022-12-28T03:23:46.767Z,7.00
2022-12-28T03:27:10.125Z,7.20
2022-12-28T03:30:38.490Z,7.10
2022-12-28T03:33:49.073Z,7.20
2022-12-28T03:37:32.562Z,7.20
2022-12-28T03:40:47.053Z,7.20
2022-12-28T03:43:53.880Z,6.70
2022-12-28T03:47:06.426Z,7.00
2022-12-28T03:50:08.648Z,7.20
2022-12-28T03:53:10.627Z,7.30
2022-12-28T03:56:15.133Z,7.30
2022-12-28T03:59:17.405Z,7.40
2022-12-28T04:02:19.169Z,7.20
2022-12-28T04:05:21.322Z,7.10
2022-12-28T04:08:22.859Z,7.10
2022-12-28T04:11:24.380Z,7.30
2022-12-28T04:14:25.957Z,7.30
2022-12-28T04:17:28.869Z,7.40
2022-12-28T04:20:30.444Z,7.40
2022-12-28T04:23:32.544Z,7.50
2022-12-28T04:26:34.115Z,7.30
2022-12-28T04:29:35.679Z,7.40
2022-12-28T04:32:38.532Z,7.90
2022-12-28T04:35:40.065Z,7.80
2022-12-28T04:38:42.055Z,7.50
2022-12-28T04:41:43.626Z,7.30
2022-12-28T04:44:45.199Z,7.50
2022-12-28T04:47:46.747Z,7.50
2022-12-28T04:50:48.496Z,7.70
2022-12-28T04:53:50.454Z,7.50
2022-12-28T04:56:52.089Z,7.50
2022-12-28T04:59:53.630Z,7.40
2022-12-28T05:02:59.579Z,7.40
2022-12-28T05:06:07.405Z,7.70
2022-12-28T05:09:08.931Z,7.40
2022-12-28T05:12:10.831Z,7.40
2022-12-28T05:15:12.355Z,7.40
2022-12-28T05:18:13.885Z,7.20
2022-12-28T05:21:25.067Z,7.50
2022-12-28T05:24:26.612Z,7.20
2022-12-28T05:27:28.164Z,7.90
2022-12-28T05:30:29.677Z,7.50
2022-12-28T05:33:33.138Z,7.50
2022-12-28T05:36:37.781Z,7.50
2022-12-28T05:39:39.353Z,7.40
2022-12-28T05:42:43.864Z,7.40
2022-12-28T05:45:48.076Z,7.70
2022-12-28T05:48:49.744Z,7.60
2022-12-28T05:51:54.715Z,8.10
2022-12-28T05:54:56.348Z,8.00
2022-12-28T05:57:57.863Z,9.60
2022-12-28T06:01:10.111Z,7.90
2022-12-28T06:04:17.930Z,7.90
2022-12-28T06:07:20.043Z,7.70
2022-12-28T06:10:21.580Z,7.80
2022-12-28T06:13:23.097Z,7.90
2022-12-28T06:16:28.163Z,7.90
2022-12-28T06:19:29.843Z,7.90
2022-12-28T06:22:31.373Z,7.50
2022-12-28T06:25:33.743Z,8.00
2022-12-28T06:28:38.786Z,8.30
2022-12-28T06:31:44.550Z,7.90
2022-12-28T06:34:46.144Z,7.90
2022-12-28T06:37:48.311Z,8.00
2022-12-28T06:41:15.060Z,8.10
2022-12-28T06:44:13.531Z,8.10
2022-12-28T06:47:15.074Z,8.50
2022-12-28T06:50:16.792Z,8.00
2022-12-28T06:53:18.744Z,8.20
2022-12-28T06:56:25.820Z,8.10
2022-12-28T06:59:27.601Z,7.70
2022-12-28T07:02:29.316Z,8.20
2022-12-28T07:05:31.844Z,8.00
2022-12-28T07:08:33.846Z,8.00
2022-12-28T07:11:36.772Z,7.90
2022-12-28T07:14:38.305Z,8.00
2022-12-28T07:17:39.819Z,8.20
2022-12-28T07:20:41.414Z,8.20
2022-12-28T07:23:43.087Z,8.00
2022-12-28T07:26:44.667Z,8.00
2022-12-28T07:29:46.227Z,7.60
2022-12-28T07:32:47.841Z,8.30
2022-12-28T07:35:49.391Z,8.10
2022-12-28T07:38:51.410Z,8.40
2022-12-28T07:41:53.123Z,8.30
2022-12-28T07:44:54.648Z,8.20
2022-12-28T07:47:56.183Z,8.10
2022-12-28T07:50:58.758Z,8.40
2022-12-28T07:54:01.296Z,8.20
2022-12-28T07:57:03.202Z,8.50
2022-12-28T08:00:07.229Z,8.30
2022-12-28T08:03:08.854Z,7.90
2022-12-28T08:06:13.708Z,8.40
2022-12-28T08:09:15.562Z,8.20
2022-12-28T08:12:17.069Z,8.50
2022-12-28T08:15:24.064Z,8.40
2022-12-28T08:18:26.255Z,10.50
2022-12-28T08:21:33.205Z,8.70
2022-12-28T08:24:35.591Z,8.50
2022-12-28T08:27:38.772Z,8.60
2022-12-28T08:30:40.506Z,8.40
2022-12-28T08:33:42.464Z,8.70
2022-12-28T08:36:43.996Z,9.10
2022-12-28T08:39:45.579Z,8.40
2022-12-28T08:42:47.102Z,8.70
2022-12-28T08:46:02.234Z,8.70
2022-12-28T08:49:05.602Z,9.20
2022-12-28T08:52:07.661Z,8.90
2022-12-28T08:55:09.433Z,8.90
2022-12-28T08:58:11.018Z,9.50
2022-12-28T09:01:40.795Z,7.80
2022-12-28T09:04:44.974Z,8.80
2022-12-28T09:07:46.517Z,9.00
2022-12-28T09:10:48.064Z,9.10
2022-12-28T09:13:49.936Z,8.60
2022-12-28T09:16:53.329Z,9.20
2022-12-28T09:19:54.891Z,9.10
2022-12-28T09:22:56.407Z,9.20
2022-12-28T09:26:04.137Z,9.20
2022-12-28T09:29:08.656Z,10.30
2022-12-28T09:32:10.249Z,9.20
2022-12-28T09:35:11.804Z,10.50
2022-12-28T09:38:13.484Z,9.60
2022-12-28T09:41:29.865Z,9.20
2022-12-28T09:44:56.257Z,9.40
2022-12-28T09:48:13.168Z,9.80
2022-12-28T09:51:15.016Z,9.20
2022-12-28T09:54:25.705Z,9.40
2022-12-28T09:57:35.203Z,9.80
2022-12-28T10:00:47.689Z,9.90
2022-12-28T10:03:49.618Z,9.60
2022-12-28T10:06:51.251Z,9.60
2022-12-28T10:09:52.986Z,9.80
2022-12-28T10:12:57.260Z,9.70
2022-12-28T10:15:59.203Z,9.80
2022-12-28T10:19:00.830Z,9.90
2022-12-28T10:22:05.707Z,9.70
2022-12-28T10:25:19.931Z,9.90
2022-12-28T10:28:23.505Z,10.10
2022-12-28T10:31:40.289Z,10.00
2022-12-28T10:34:55.856Z,9.90
2022-12-28T10:38:04.162Z,10.10
2022-12-28T10:41:09.629Z,9.90
2022-12-28T10:44:39.033Z,9.70
2022-12-28T10:47:48.125Z,8.60
2022-12-28T10:51:07.489Z,10.00
2022-12-28T10:54:28.083Z,10.20
2022-12-28T10:57:32.351Z,10.20
2022-12-28T11:00:34.234Z,10.10
2022-12-28T11:03:38.326Z,10.20
2022-12-28T11:07:00.477Z,10.50
2022-12-28T11:10:25.749Z,10.40
2022-12-28T11:13:27.419Z,10.50
2022-12-28T11:16:33.001Z,10.30
2022-12-28T11:19:35.261Z,10.40
2022-12-28T11:22:37.448Z,10.40
2022-12-28T11:25:41.235Z,10.30
2022-12-28T11:28:45.144Z,10.60
2022-12-28T11:31:52.404Z,10.40
2022-12-28T11:34:56.258Z,10.50
2022-12-28T11:38:00.195Z,10.20
2022-12-28T11:41:01.859Z,10.50
2022-12-28T11:44:05.980Z,10.70
2022-12-28T11:47:16.732Z,10.50
2022-12-28T11:50:34.849Z,10.20
2022-12-28T11:53:45.434Z,10.60
2022-12-28T11:56:47.841Z,10.40
2022-12-28T11:59:49.725Z,10.50
2022-12-28T12:02:53.033Z,10.20
2022-12-28T12:05:54.788Z,10.40
2022-12-28T12:08:56.364Z,10.20
2022-12-28T12:12:02.031Z,11.30
2022-12-28T12:15:11.531Z,10.50
2022-12-28T12:18:22.625Z,10.50
2022-12-28T12:21:39.395Z,12.50
2022-12-28T12:24:50.197Z,10.20
2022-12-28T12:28:03.070Z,10.60
2022-12-28T12:31:09.025Z,10.50
2022-12-28T12:34:20.016Z,10.70
2022-12-28T12:37:33.918Z,10.20
2022-12-28T12:40:53.720Z,10.70
2022-12-28T12:44:13.149Z,10.40
2022-12-28T12:47:46.592Z,10.30
2022-12-28T12:51:05.097Z,12.30
2022-12-28T12:54:35.430Z,10.10
2022-12-28T12:58:02.093Z,10.10
2022-12-28T13:01:42.904Z,10.10
2022-12-28T13:04:47.628Z,10.00
2022-12-28T13:07:50.324Z,10.00
2022-12-28T13:10:53.199Z,9.70
2022-12-28T13:13:55.068Z,10.10
2022-12-28T13:16:58.978Z,10.30
2022-12-28T13:20:18.815Z,9.90
2022-12-28T13:23:22.592Z,9.90
2022-12-28T13:26:28.181Z,10.30
2022-12-28T13:29:39.571Z,10.10
2022-12-28T13:32:54.755Z,10.00
2022-12-28T13:36:17.782Z,10.00
2022-12-28T13:39:20.530Z,9.90
2022-12-28T13:43:03.014Z,9.70
2022-12-28T13:46:08.948Z,9.90
2022-12-28T13:49:12.226Z,9.80
2022-12-28T13:52:20.539Z,10.10
2022-12-28T13:55:54.120Z,9.90
2022-12-28T13:59:01.355Z,10.10
2022-12-28T14:02:06.396Z,9.90
2022-12-28T14:05:15.170Z,10.10
2022-12-28T14:08:17.656Z,10.10
2022-12-28T14:11:20.082Z,12.00
2022-12-28T14:14:21.981Z,10.50
2022-12-28T14:17:24.570Z,10.10
2022-12-28T14:20:26.346Z,10.20
2022-12-28T14:23:33.422Z,9.90
2022-12-28T14:26:36.135Z,10.30
2022-12-28T14:29:37.786Z,10.10
2022-12-28T14:32:44.253Z,10.10
2022-12-28T14:35:50.091Z,10.00
2022-12-28T14:38:56.315Z,10.30
2022-12-28T14:42:04.164Z,11.80
2022-12-28T14:46:07.507Z,10.20
2022-12-28T14:48:59.294Z,10.00
2022-12-28T14:52:10.022Z,9.90
2022-12-28T14:55:31.871Z,10.10
2022-12-28T14:58:55.053Z,9.80
2022-12-28T15:01:56.934Z,10.40
2022-12-28T15:05:00.795Z,10.10
2022-12-28T15:08:02.915Z,10.10
2022-12-28T15:14:11.157Z,10.10
2022-12-28T15:17:13.300Z,10.40
2022-12-28T15:20:15.266Z,8.60
2022-12-28T15:23:16.966Z,10.10
2022-12-28T15:26:19.019Z,10.10
2022-12-28T15:29:39.410Z,10.50
2022-12-28T15:32:41.439Z,10.30
2022-12-28T15:35:43.008Z,10.80
2022-12-28T15:38:45.936Z,9.80
2022-12-28T15:41:47.507Z,10.00
2022-12-28T15:44:51.006Z,10.10
2022-12-28T15:47:54.204Z,10.00
2022-12-28T15:50:55.788Z,10.30
2022-12-28T15:53:57.453Z,10.20
2022-12-28T15:56:59.188Z,9.90
2022-12-28T16:00:00.855Z,9.90
2022-12-28T16:03:02.588Z,10.10
2022-12-28T16:06:05.622Z,10.60
2022-12-28T16:09:07.384Z,10.20
2022-12-28T16:12:08.951Z,10.10
2022-12-28T16:15:10.715Z,10.40
2022-12-28T16:18:12.493Z,10.10
2022-12-28T16:21:15.191Z,10.00
2022-12-28T16:24:20.491Z,10.40
2022-12-28T16:27:22.109Z,10.20
2022-12-28T16:30:23.718Z,10.30
2022-12-28T16:33:25.586Z,10.10
2022-12-28T16:36:27.460Z,10.50
2022-12-28T16:39:29.862Z,10.20
2022-12-28T16:42:32.096Z,10.20
2022-12-28T16:45:35.619Z,9.90
2022-12-28T16:48:38.202Z,10.30
2022-12-28T16:51:41.961Z,10.60
2022-12-28T16:54:43.530Z,10.20
2022-12-28T16:57:45.139Z,10.50
2022-12-28T17:00:46.837Z,10.20
2022-12-28T17:03:48.368Z,9.90
2022-12-28T17:06:51.621Z,10.50
2022-12-28T17:09:53.134Z,10.10
2022-12-28T17:12:54.812Z,10.30
2022-12-28T17:16:00.407Z,10.10
2022-12-28T17:19:02.775Z,9.90
2022-12-28T17:22:04.973Z,10.10
2022-12-28T17:25:07.141Z,9.90
2022-12-28T17:28:09.126Z,9.80
2022-12-28T17:31:14.433Z,9.50
2022-12-28T17:34:16.059Z,9.60
2022-12-28T17:37:17.805Z,9.80
2022-12-28T17:40:19.823Z,10.80
2022-12-28T17:43:21.492Z,9.70
2022-12-28T17:46:26.192Z,9.60
2022-12-28T17:49:27.849Z,9.70
2022-12-28T17:52:29.376Z,9.50
2022-12-28T17:55:30.978Z,9.60
2022-12-28T17:58:32.906Z,9.50
2022-12-28T18:01:34.681Z,9.30
2022-12-28T18:04:37.094Z,9.20
2022-12-28T18:07:38.653Z,9.40
2022-12-28T18:10:40.177Z,9.50
2022-12-28T18:13:43.555Z,9.30
2022-12-28T18:16:45.170Z,9.20
2022-12-28T18:19:46.844Z,9.50
2022-12-28T18:22:48.360Z,9.10
2022-12-28T18:25:49.943Z,8.90
2022-12-28T18:28:52.359Z,9.20
2022-12-28T18:31:53.968Z,9.40
2022-12-28T18:34:55.538Z,9.20
2022-12-28T18:37:57.077Z,9.30
2022-12-28T18:40:59.717Z,9.10
2022-12-28T18:44:02.695Z,9.40
2022-12-28T18:47:04.539Z,9.00
2022-12-28T18:50:06.647Z,10.90
2022-12-28T18:53:09.321Z,9.10
2022-12-28T18:56:16.410Z,8.80
2022-12-28T18:59:18.372Z,8.90
2022-12-28T19:02:20.243Z,9.10
2022-12-28T19:05:21.867Z,9.00
2022-12-28T19:08:25.767Z,8.90
2022-12-28T19:11:27.739Z,8.70
2022-12-28T19:14:29.367Z,9.00
2022-12-28T19:17:30.907Z,9.00
2022-12-28T19:20:33.187Z,8.80
2022-12-28T19:23:34.774Z,8.90
2022-12-28T19:26:36.643Z,9.70
2022-12-28T19:29:38.176Z,8.80
2022-12-28T19:32:39.697Z,9.00
2022-12-28T19:35:41.297Z,8.60
2022-12-28T19:38:43.250Z,7.70
2022-12-28T19:41:44.801Z,8.90
2022-12-28T19:44:46.348Z,8.60
2022-12-28T19:47:47.895Z,9.00
2022-12-28T19:50:49.696Z,8.40
2022-12-28T19:53:54.047Z,8.90
2022-12-28T19:56:55.575Z,8.90
2022-12-28T19:59:57.097Z,8.50
2022-12-28T20:02:58.934Z,8.90
2022-12-28T20:06:06.900Z,8.50
2022-12-28T20:09:08.532Z,8.50
2022-12-28T20:12:10.094Z,8.70
2022-12-28T20:15:11.770Z,9.30
2022-12-28T20:18:13.775Z,9.00
2022-12-28T20:21:20.331Z,11.10
2022-12-28T20:24:22.847Z,9.00
2022-12-28T20:27:28.335Z,9.30
2022-12-28T20:30:31.566Z,9.20
2022-12-28T20:33:35.310Z,8.70
2022-12-28T20:36:36.933Z,9.40
2022-12-28T20:39:46.640Z,8.90
2022-12-28T20:43:07.166Z,9.40
2022-12-28T20:46:11.868Z,9.00
2022-12-28T20:49:13.580Z,9.50
2022-12-28T20:52:15.638Z,9.70
2022-12-28T20:55:17.176Z,9.40
2022-12-28T20:58:19.810Z,9.30
2022-12-28T21:01:22.039Z,9.50
2022-12-28T21:04:24.841Z,9.50
2022-12-28T21:07:27.355Z,9.80
2022-12-28T21:10:28.989Z,9.80
2022-12-28T21:13:30.531Z,9.00
2022-12-28T21:16:32.152Z,9.60
2022-12-28T21:19:33.696Z,10.20
2022-12-28T21:22:35.285Z,9.60
2022-12-28T21:25:37.107Z,10.90
2022-12-28T21:28:38.905Z,9.80
2022-12-28T21:31:40.584Z,9.90
2022-12-28T21:34:42.155Z,10.10
2022-12-28T21:37:44.000Z,9.60
2022-12-28T21:40:45.594Z,9.80
2022-12-28T21:43:47.271Z,9.80
2022-12-28T21:46:53.211Z,9.80
2022-12-28T21:49:54.809Z,10.20
2022-12-28T21:52:57.055Z,9.70
2022-12-28T21:55:59.017Z,9.80
2022-12-28T21:59:01.360Z,9.50
2022-12-28T22:02:21.974Z,10.30
2022-12-28T22:05:42.376Z,10.20
2022-12-28T22:09:02.762Z,10.90
2022-12-28T22:12:23.313Z,10.00
2022-12-28T22:15:45.212Z,10.00
2022-12-28T22:19:02.057Z,10.90
2022-12-28T22:22:04.018Z,10.00
2022-12-28T22:25:05.761Z,9.80
2022-12-28T22:28:08.400Z,10.30
2022-12-28T22:31:10.089Z,9.70
2022-12-28T22:34:11.752Z,10.30
2022-12-28T22:37:14.615Z,10.00
2022-12-28T22:40:16.674Z,9.50
2022-12-28T22:43:18.172Z,9.80
2022-12-28T22:46:21.017Z,9.80
2022-12-28T22:49:22.588Z,10.00
2022-12-28T22:52:24.783Z,9.90
2022-12-28T22:55:26.350Z,9.70
2022-12-28T22:58:28.495Z,10.10
2022-12-28T23:01:30.077Z,10.20
2022-12-28T23:04:31.795Z,10.00
2022-12-28T23:07:34.496Z,11.90
2022-12-28T23:10:36.044Z,9.70
2022-12-28T23:13:37.551Z,10.10
2022-12-28T23:16:39.167Z,9.90
2022-12-28T23:20:00.728Z,10.00
2022-12-28T23:23:21.103Z,9.60
2022-12-28T23:26:41.350Z,10.20
2022-12-28T23:29:43.305Z,9.80
2022-12-28T23:32:49.765Z,10.20
2022-12-28T23:35:51.375Z,10.30
2022-12-28T23:38:52.910Z,10.10
2022-12-28T23:41:54.804Z,10.40
2022-12-28T23:44:56.347Z,10.10
2022-12-28T23:47:57.984Z,10.30
2022-12-28T23:51:07.841Z,10.00
2022-12-28T23:54:10.516Z,10.30
2022-12-28T23:57:12.116Z,10.20
